Latest Weather Observations for Parawa West

IDS60801

Issued at 1:31 pm CDT Thursday 2 April 2015 (issued every 30 minutes, with the page automatically refreshed every 10 minutes)

About weather observations | Map of weather stations | Latest weather observations for SA | Other Formats
Station Details ID: 023875 Name: SECOND VALLEY FOREST AWS Lat: -35.57 Lon: 138.29 Height: 341.0 m
Data from the previous 72 hours. | See also: Recent months at Parawa West
Date/Time
CDT
Temp
°C
App
Temp
°C
Dew
Point
Rel
Hum
%
Delta-T
°C
Wind Press
QNH
hPa
Press
MSL
hPa
Rain
since 9 am
mm
Dir
 
Spd
km/h
Gust
km/h
Spd
kts
Gust
kts
02/01:30pm 12.6 7.0 8.9 78 1.9 SE 28 37 15 20 1025.0 1024.6 0.0
02/01:00pm 13.1 7.0 8.4 73 2.4 SE 30 39 16 21 1025.2 1024.8 0.0
02/12:30pm 14.1 7.4 7.2 63 3.4 SE 32 41 17 22 1025.3 1024.9 0.0
02/12:00pm 13.8 6.8 6.9 63 3.4 SE 33 46 18 25 1025.3 1024.9 0.0
02/11:30am 13.1 6.2 7.3 68 2.9 SE 33 43 18 23 1025.5 1025.1 0.0
02/11:00am 13.0 6.3 7.5 69 2.7 SE 32 43 17 23 1025.4 1025.0 0.0
02/10:30am 12.9 6.0 6.5 65 3.1 SE 32 41 17 22 1025.3 1024.9 0.0
02/10:00am 13.8 6.4 6.9 63 3.4 SE 35 52 19 28 1025.2 1024.8 0.0
02/09:30am 12.1 5.4 7.4 73 2.3 SE 32 43 17 23 1025.0 1024.6 0.0
02/09:00am 12.2 5.4 6.9 70 2.6 SE 32 43 17 23 1024.7 1024.3 4.0
02/08:30am 11.9 4.6 7.2 73 2.3 SE 35 48 19 26 1024.3 1023.9 4.0
02/08:18am 11.8 5.5 7.3 74 2.2 SE 30 48 16 26 1024.2 1023.8 4.0
02/08:00am 11.4 5.1 5.9 69 2.6 SE 28 39 15 21 1024.0 1023.6 4.0
02/07:30am 11.5 4.9 6.2 70 2.5 SE 30 41 16 22 1023.6 1023.1 4.0
02/07:00am 11.7 4.7 6.8 72 2.4 SE 33 52 18 28 1023.0 1022.6 4.0
02/06:56am 11.7 4.7 6.0 68 2.7 SE 32 52 17 28 1022.9 1022.5 4.0
02/06:30am 11.4 4.8 6.1 70 2.5 SE 30 44 16 24 1022.6 1022.2 4.0
02/06:00am 11.5 4.5 6.8 73 2.3 SSE 33 43 18 23 1022.2 1021.8 4.0
02/05:30am 11.8 4.7 8.1 78 1.8 SSE 35 46 19 25 1021.8 1021.4 4.0
02/05:00am 11.4 3.7 6.9 74 2.2 SSE 37 44 20 24 1021.5 1021.1 4.0
02/04:30am 11.2 3.2 5.9 70 2.5 SSE 37 48 20 26 1021.2 1020.7 4.0
02/04:00am 11.3 3.1 6.4 72 2.4 SSE 39 56 21 30 1021.0 1020.5 4.0
02/03:30am 11.4 4.4 6.9 74 2.2 SSE 33 44 18 24 1021.2 1020.7 4.0
02/03:00am 11.8 4.5 7.3 74 2.2 SSE 35 48 19 26 1021.2 1020.7 4.0
02/02:30am 11.7 4.4 7.2 74 2.2 SSE 35 46 19 25 1021.1 1020.6 4.0
02/02:00am 11.8 3.3 7.1 73 2.3 SSE 41 54 22 29 1021.1 1020.6 4.0
02/01:30am 11.8 3.9 7.9 77 1.9 SSE 39 52 21 28 1021.1 1020.6 4.0
02/01:00am 11.9 4.9 8.4 79 1.8 SSE 35 50 19 27 1021.2 1020.7 4.0
02/12:37am 12.1 5.1 8.6 79 1.8 SSE 35 54 19 29 1021.0 1020.5 4.0
02/12:30am 11.9 4.6 8.7 81 1.6 SSE 37 50 20 27 1020.9 1020.4 4.0
02/12:00am 12.3 5.7 10.0 86 1.2 SSE 35 48 19 26 1021.0 1020.5 4.0
 
Date/Time
CDT
Temp
°C
App
Temp
°C
Dew
Point
Rel
Hum
%
Delta-T
°C
Wind Press
QNH
hPa
Press
MSL
hPa
Rain
since 9 am
mm
Dir
 
Spd
km/h
Gust
km/h
Spd
kts
Gust
kts
01/11:30pm 12.3 5.8 10.2 87 1.1 S 35 46 19 25 1021.1 1020.6 4.0
01/11:00pm 12.4 6.1 11.0 91 0.7 S 35 50 19 27 1020.9 1020.4 4.0
01/10:30pm 12.6 6.8 12.6 100 0.0 S 35 46 19 25 1020.6 1020.1 4.0
01/10:00pm 13.1 8.4 13.1 100 0.0 S 30 41 16 22 1020.4 1019.9 3.8
01/09:30pm 13.1 7.4 13.1 100 0.0 S 35 43 19 23 1020.0 1019.6 3.2
01/09:00pm 13.6 8.1 13.6 100 0.0 S 35 48 19 26 1019.2 1018.8 2.6
01/08:30pm 14.2 9.5 14.2 100 0.0 SSW 32 44 17 24 1018.7 1018.2 2.2
01/08:00pm 14.7 10.5 14.7 100 0.0 SSW 30 43 16 23 1017.9 1017.4 1.6
01/07:30pm 15.2 12.7 15.2 100 0.0 SW 22 35 12 19 1017.5 1017.0 1.4
01/07:00pm 15.8 15.3 15.8 100 0.0 WSW 13 20 7 11 1017.1 1016.7 1.4
01/06:30pm 16.2 16.9 16.2 100 0.0 WSW 7 11 4 6 1016.8 1016.4 1.0
01/06:00pm 16.4 17.3 16.1 98 0.2 SW 6 9 3 5 1016.2 1015.7 0.8
01/05:30pm 16.7 16.1 15.6 93 0.7 WSW 13 17 7 9 1016.3 1015.9 0.2
01/05:00pm 17.8 17.2 14.5 81 1.9 WSW 11 17 6 9 1015.8 1015.3 0.0
01/04:30pm 17.9 17.4 14.8 82 1.8 WSW 11 26 6 14 1015.7 1015.2 0.0
01/04:00pm 18.7 18.7 15.2 80 2.1 WNW 9 15 5 8 1015.4 1014.9 0.0
01/03:30pm 18.2 18.7 15.6 85 1.6 SW 7 11 4 6 1015.0 1014.5 0.0
01/03:00pm 18.2 17.7 15.8 86 1.4 SSW 13 19 7 10 1014.9 1014.4 0.0
01/02:30pm 20.6 18.8 13.3 63 4.2 W 15 24 8 13 1015.0 1014.5 0.0
01/02:00pm 21.4 16.8 12.3 56 5.2 WNW 28 43 15 23 1014.9 1014.4 0.0
01/01:30pm 22.6 18.7 12.0 51 6.1 NW 24 43 13 23 1014.8 1014.3 0.0
01/01:00pm 23.2 19.1 11.3 47 6.8 NW 24 37 13 20 1014.9 1014.4 0.0
01/12:30pm 23.2 20.2 9.2 41 7.7 NW 15 30 8 16 1014.9 1014.4 0.0
01/12:00pm 23.9 19.9 6.7 33 9.0 NW 17 32 9 17 1014.7 1014.2 0.0
01/11:30am 23.1 19.8 6.4 34 8.7 NNW 13 35 7 19 1014.8 1014.3 0.0
01/11:00am 24.1 21.1 5.9 31 9.4 NW 11 24 6 13 1015.0 1014.5 0.0
01/10:30am 24.1 21.8 5.5 30 9.6 N 7 22 4 12 1015.3 1014.8 0.0
01/10:00am 22.7 20.3 5.2 32 8.9 NNE 7 22 4 12 1015.7 1014.9 0.0
01/09:30am 21.5 19.3 5.4 35 8.1 WNW 6 13 3 7 1015.9 1015.1 0.0
01/09:00am 20.7 18.5 5.5 37 7.6 SE 6 11 3 6 1015.8 1015.0 0.0
01/08:30am 20.7 18.4 5.5 37 7.6 NW 7 17 4 9 1015.8 1015.0 0.0
01/08:00am 20.5 18.2 4.9 36 7.8 W 6 17 3 9 1015.8 1015.0 0.0
01/07:30am 20.7 18.1 4.3 34 8.1 NW 7 19 4 10 1015.9 1015.1 0.0
01/07:00am 21.2 18.5 3.9 32 8.5 WNW 7 20 4 11 1015.7 1014.9 0.0
01/06:30am 21.0 18.4 4.1 33 8.3 NNW 7 20 4 11 1015.7 1014.9 0.0
01/06:00am 20.8 18.5 4.8 35 7.9 WNW 6 13 3 7 1015.5 1014.7 0.0
01/05:30am 20.7 18.5 5.1 36 7.8 NW 6 13 3 7 1015.6 1014.8 0.0
01/05:00am 20.9 19.0 4.9 35 8.0 W 4 11 2 6 1015.9 1015.1 0.0
01/04:30am 21.3 19.1 5.2 35 8.1 SE 6 13 3 7 1016.1 1015.3 0.0
01/04:00am 21.4 19.2 5.3 35 8.1 SSE 6 11 3 6 1016.5 1015.7 0.0
01/03:30am 21.1 19.4 5.9 37 7.7 NNW 4 7 2 4 1016.9 1016.1 0.0
01/03:00am 20.7 19.0 5.9 38 7.5 WSW 4 7 2 4 1017.3 1016.4 0.0
01/02:30am 20.2 18.4 5.4 38 7.4 SW 4 9 2 5 1017.8 1017.0 0.0
01/02:00am 19.6 18.5 5.3 39 7.1 CALM 0 2 0 1 1018.3 1017.5 0.0
01/01:30am 19.3 18.3 5.4 40 6.9 CALM 0 2 0 1 1018.7 1017.9 0.0
01/01:00am 18.7 17.8 6.2 44 6.3 CALM 0 2 0 1 1019.0 1018.2 0.0
01/12:30am 19.6 18.3 6.0 41 6.8 NNE 2 6 1 3 1019.3 1018.5 0.0
01/12:00am 19.9 18.7 6.3 41 6.9 NE 2 6 1 3 1019.6 1018.8 0.0
 
Date/Time
CDT
Temp
°C
App
Temp
°C
Dew
Point
Rel
Hum
%
Delta-T
°C
Wind Press
QNH
hPa
Press
MSL
hPa
Rain
since 9 am
mm
Dir
 
Spd
km/h
Gust
km/h
Spd
kts
Gust
kts
31/11:30pm 19.9 18.0 6.6 42 6.8 NE 6 9 3 5 1020.0 1019.3 0.0
31/11:00pm 21.1 19.0 6.6 39 7.5 NE 7 13 4 7 1020.2 1019.5 0.0
31/10:30pm 21.4 19.4 6.9 39 7.5 NNE 7 9 4 5 1020.5 1019.7 0.0
31/10:00pm 21.7 19.7 7.2 39 7.6 NE 7 11 4 6 1020.4 1019.6 0.0
31/09:30pm 21.8 19.4 7.2 39 7.6 NE 9 13 5 7 1020.4 1019.6 0.0
31/09:00pm 21.7 19.8 7.5 40 7.4 NE 7 13 4 7 1020.4 1019.6 0.0
31/08:30pm 21.8 19.8 6.9 38 7.7 NE 7 11 4 6 1020.5 1019.7 0.0
31/08:00pm 21.2 19.9 5.9 37 7.8 NNW 2 2 1 1 1020.7 1019.9 0.0
31/07:30pm 21.9 21.0 6.2 36 8.1 CALM 0 4 0 2 1020.4 1019.6 0.0
31/07:00pm 22.6 21.9 6.8 36 8.3 CALM 0 0 0 0 1020.7 1019.9 0.0
31/06:30pm 23.6 21.7 6.8 34 8.8 NW 6 9 3 5 1020.9 1020.1 0.0
31/06:00pm 24.5 22.3 6.3 31 9.5 NW 7 11 4 6 1020.7 1019.9 0.0
31/05:30pm 25.7 23.4 5.8 28 10.4 NW 7 15 4 8 1020.4 1019.6 0.0
31/05:00pm 25.6 23.7 6.8 30 10.0 NW 6 13 3 7 1020.5 1019.7 0.0
31/04:30pm 25.5 23.5 7.1 31 9.8 NW 7 15 4 8 1020.7 1019.9 0.0
31/04:00pm 25.4 23.7 7.5 32 9.6 NW 6 13 3 7 1021.2 1020.4 0.0
31/03:30pm 24.7 22.1 7.8 34 9.1 NW 11 20 6 11 1021.3 1020.5 0.0
31/03:00pm 25.0 22.0 7.6 33 9.3 NNW 13 24 7 13 1021.8 1021.0 0.0
31/02:30pm 25.2 23.4 7.8 33 9.4 NW 7 15 4 8 1022.0 1021.2 0.0
31/02:00pm 24.8 22.6 7.9 34 9.1 NNW 9 17 5 9 1022.3 1021.5 0.0
31/01:30pm 24.3 21.8 8.3 36 8.6 NNW 11 24 6 13 1022.8 1022.1 0.0
31/01:00pm 24.7 22.6 8.2 35 8.9 NW 9 22 5 12 1023.2 1022.5 0.0
31/12:30pm 24.6 23.1 8.5 36 8.7 NW 6 11 3 6 1023.7 1022.9 0.0
31/12:00pm 23.4 21.5 9.0 40 7.8 NNW 9 20 5 11 1023.9 1023.1 0.0
31/11:30am 22.6 20.9 9.7 44 7.1 NNW 9 24 5 13 1024.3 1023.5 0.0
31/11:00am 22.5 21.4 10.0 45 6.9 NNW 6 15 3 8 1024.4 1023.6 0.0
31/10:30am 22.6 21.7 10.7 47 6.6 N 6 9 3 5 1024.3 1023.5 0.0
31/10:00am 21.6 20.6 10.4 49 6.2 NE 6 15 3 8 1024.4 1023.6 0.0
31/09:30am 19.5 18.8 11.3 59 4.5 NE 6 9 3 5 1024.4 1023.6 0.0
31/09:00am 17.5 16.6 11.3 67 3.4 NE 7 11 4 6 1024.5 1023.7 0.2
31/08:30am 15.5 14.5 10.3 71 2.8 NE 6 13 3 7 1024.4 1023.6 0.2
31/08:00am 15.6 12.9 10.2 70 2.9 NE 15 20 8 11 1024.2 1023.4 0.2
31/07:30am 15.4 12.5 9.7 69 3.0 NE 15 19 8 10 1024.0 1023.2 0.2
31/07:00am 15.3 13.1 9.4 68 3.1 NE 11 19 6 10 1024.2 1023.4 0.2
31/06:30am 16.3 13.3 9.3 63 3.7 NE 15 20 8 11 1024.0 1023.2 0.2
31/06:00am 15.3 12.9 9.9 70 2.8 NE 13 20 7 11 1024.1 1023.3 0.2
31/05:30am 15.3 12.9 9.9 70 2.8 NE 13 19 7 10 1024.0 1023.2 0.2
31/05:00am 15.5 12.6 9.6 68 3.1 NE 15 22 8 12 1023.9 1023.1 0.2
31/04:30am 15.9 12.9 9.3 65 3.5 NE 15 20 8 11 1024.1 1023.3 0.2
31/04:00am 15.5 13.0 9.8 69 3.0 NE 13 20 7 11 1024.3 1023.5 0.2
31/03:30am 15.3 12.3 10.5 73 2.6 ENE 17 22 9 12 1024.4 1023.6 0.2
31/03:00am 15.1 12.4 10.5 74 2.5 ENE 15 19 8 10 1024.5 1023.7 0.2
31/02:30am 14.8 12.2 10.6 76 2.2 ENE 15 20 8 11 1024.6 1023.8 0.2
31/02:00am 14.9 11.6 10.9 77 2.2 ENE 19 20 10 11 1024.8 1024.0 0.2
31/01:30am 14.4 11.8 10.8 79 1.9 ENE 15 19 8 10 1024.7 1023.9 0.2
31/01:00am 14.0 11.5 11.2 83 1.5 E 15 17 8 9 1024.9 1024.1 0.2
31/12:30am 13.8 11.7 11.0 83 1.5 E 13 15 7 8 1025.0 1024.2 0.2
31/12:00am 13.9 11.7 10.7 81 1.7 ENE 13 15 7 8 1025.2 1024.5 0.2
 
Date/Time
CDT
Temp
°C
App
Temp
°C
Dew
Point
Rel
Hum
%
Delta-T
°C
Wind Press
QNH
hPa
Press
MSL
hPa
Rain
since 9 am
mm
Dir
 
Spd
km/h
Gust
km/h
Spd
kts
Gust
kts
30/11:30pm 14.5 12.5 11.5 82 1.6 ENE 13 17 7 9 1025.3 1024.6 0.2
30/11:00pm 13.8 11.4 11.3 85 1.4 E 15 17 8 9 1025.5 1024.8 0.2
30/10:30pm 13.7 11.2 11.2 85 1.3 E 15 17 8 9 1025.7 1025.0 0.2
30/10:00pm 14.4 11.9 11.0 80 1.8 E 15 20 8 11 1025.8 1025.1 0.2
30/09:30pm 14.2 11.9 10.6 79 1.9 ESE 13 17 7 9 1025.8 1025.1 0.2
30/09:00pm 14.2 12.4 10.8 80 1.8 ESE 11 13 6 7 1025.8 1025.1 0.2
30/08:30pm 14.4 12.8 11.4 82 1.6 ESE 11 15 6 8 1025.5 1024.8 0.2
30/08:00pm 14.7 13.7 11.1 79 1.9 ESE 7 9 4 5 1025.1 1024.4 0.2
30/07:30pm 15.4 14.3 10.6 73 2.6 SE 7 9 4 5 1025.0 1024.2 0.2
30/07:00pm 16.8 15.4 10.9 68 3.2 SE 9 13 5 7 1025.0 1024.2 0.2
30/06:30pm 17.9 16.2 11.2 65 3.7 SE 11 17 6 9 1024.8 1024.0 0.2
30/06:00pm 18.7 17.2 11.8 64 3.8 SE 11 15 6 8 1024.8 1024.0 0.2
30/05:30pm 19.4 17.8 11.7 61 4.3 SE 11 13 6 7 1024.6 1023.8 0.2
30/05:00pm 19.5 18.0 12.0 62 4.2 SSE 11 17 6 9 1024.5 1023.7 0.2
30/04:30pm 19.5 17.0 11.0 58 4.7 SSE 15 19 8 10 1024.5 1023.7 0.2
30/04:00pm 20.1 17.7 11.3 57 4.9 S 15 22 8 12 1024.6 1023.8 0.2
30/03:30pm 20.4 18.4 11.6 57 4.9 S 13 20 7 11 1024.6 1023.8 0.2
30/03:00pm 20.5 18.6 11.7 57 4.9 SSE 13 22 7 12 1024.7 1023.9 0.2
30/02:30pm 19.4 17.8 11.7 61 4.3 S 11 19 6 10 1024.9 1024.1 0.2
30/02:00pm 20.0 19.1 12.5 62 4.3 SSE 9 15 5 8 1025.1 1024.4 0.2

Other Formats:

Comma delimited format used in spreadsheet applications
http://www.bom.gov.au/fwo/IDS60801/IDS60801.94811.axf

JavaScript Object Notation format (JSON) in row-major order
http://www.bom.gov.au/fwo/IDS60801/IDS60801.94811.json